CheckWX is a tool to help pilots better visualize weather data.  It is not intended as a substitute for an official pre-flight weather briefing.

10:21:51 UTC

VTUV TAF
Roi Et Airport
Thailand
TAF VTUV 260500Z 2606/2706 20007KT 9000 BKN025 TEMPO 2610/2613 VRB10KT 5000 TSRA FEW020CB BKN025

Jun-26@
06:00 UTC

Jun-26 @ 06:00 UTC

Jun-27@
06:00 UTC

Jun-27 @ 06:00 UTC

TAF VTUV 260500Z 2606/2706 20007KT 9000 BKN025
Wind
  • 200° at 7 KTS
Cloud Levels
  • Broken at 2,500' AGL

Jun-26@
10:00 UTC

Jun-26 @ 10:00 UTC

Jun-26@
13:00 UTC

Jun-26 @ 13:00 UTC

TEMPO 2610/2613 VRB10KT 5000 TSRA FEW020CB BKN025

Temporary

Temporary Changes expected for less than half the time period

Wind
  • Variable at 10 KTS
Conditions
Thunderstorm, Rain
Cloud Levels
  • Few at 2,000' AGL
  • Broken at 2,500' AGL